Time;durP1;ratioP1;P1;durP2;ratioP2;P2;SDS_P1;SDS_P2;PMS_P1;PMS_P2;Temp;Humidity;BMP_temperature;BMP_pressure;BME280_temperature;BME280_humidity;BME280_pressure;Samples;Min_cycle;Max_cycle;Signal;HPM_P1;HPM_P2
2024/03/12 00:01:43;;;;;;;6.85;2.47;;;;;;;6.50;100.00;99717.13;5066851;28;20063;-54
2024/03/12 00:04:11;;;;;;;7.15;2.50;;;;;;;6.49;100.00;99704.53;5066714;28;20657;-51
2024/03/12 00:06:38;;;;;;;5.18;2.35;;;;;;;6.49;100.00;99721.00;5051590;28;20045;-54
2024/03/12 00:09:06;;;;;;;7.60;2.45;;;;;;;6.48;100.00;99713.13;5058576;28;20053;-50
2024/03/12 00:11:34;;;;;;;6.25;2.72;;;;;;;6.47;100.00;99698.56;5052122;28;20053;-50
2024/03/12 00:14:02;;;;;;;7.80;2.83;;;;;;;6.46;100.00;99680.47;5065784;28;20056;-52
2024/03/12 00:16:29;;;;;;;5.75;2.30;;;;;;;6.46;100.00;99679.69;5049457;28;20062;-55
2024/03/12 00:19:02;;;;;;;6.78;2.85;;;;;;;6.47;100.00;99679.31;5054095;28;20049;-49
2024/03/12 00:21:30;;;;;;;6.63;3.15;;;;;;;6.49;100.00;99670.72;5056776;28;20045;-51
2024/03/12 00:23:58;;;;;;;7.55;2.53;;;;;;;6.49;100.00;99665.22;5066582;28;20078;-55
2024/03/12 00:26:28;;;;;;;6.95;2.63;;;;;;;6.50;100.00;99656.66;5032691;28;20045;-51
2024/03/12 00:28:55;;;;;;;7.07;2.25;;;;;;;6.52;100.00;99659.03;5067203;28;20051;-50
2024/03/12 00:31:24;;;;;;;5.65;2.40;;;;;;;6.56;100.00;99665.47;5051467;28;20048;-55
2024/03/12 00:33:51;;;;;;;5.80;2.15;;;;;;;6.56;100.00;99648.97;5070080;28;20463;-56
2024/03/12 00:36:19;;;;;;;4.10;1.92;;;;;;;6.58;100.00;99646.66;5068505;28;20047;-52
2024/03/12 00:38:46;;;;;;;8.07;3.22;;;;;;;6.59;100.00;99635.31;5052845;28;20054;-52
2024/03/12 00:41:14;;;;;;;10.15;2.95;;;;;;;6.63;100.00;99640.94;5066411;28;20048;-51
2024/03/12 00:43:42;;;;;;;7.85;2.67;;;;;;;6.66;100.00;99632.78;5060316;28;20052;-52
2024/03/12 00:46:10;;;;;;;4.65;2.42;;;;;;;6.67;100.00;99628.88;5032863;28;20036;-53
2024/03/12 00:48:38;;;;;;;7.00;2.83;;;;;;;6.70;100.00;99628.19;5042162;28;20048;-56
2024/03/12 00:51:08;;;;;;;9.95;3.13;;;;;;;6.74;100.00;99618.13;5067033;28;20071;-53
2024/03/12 00:53:39;;;;;;;3.17;2.00;;;;;;;6.77;100.00;99622.13;5044767;28;20048;-52
2024/03/12 00:56:06;;;;;;;4.70;1.92;;;;;;;6.80;100.00;99609.63;5070042;28;20056;-55
2024/03/12 00:58:35;;;;;;;8.65;2.70;;;;;;;6.84;100.00;99607.75;5057920;28;20056;-52
2024/03/12 01:01:03;;;;;;;6.78;1.90;;;;;;;6.86;100.00;99597.22;5050581;28;20424;-55
2024/03/12 01:03:31;;;;;;;5.75;1.90;;;;;;;6.90;100.00;99609.13;5069841;28;20410;-53
2024/03/12 01:05:58;;;;;;;5.57;3.15;;;;;;;6.91;100.00;99597.00;5063413;28;20060;-54
2024/03/12 01:08:25;;;;;;;6.07;3.45;;;;;;;6.95;100.00;99589.63;5045334;28;20047;-54
2024/03/12 01:10:53;;;;;;;4.63;1.92;;;;;;;6.97;100.00;99587.31;5038495;28;20048;-54
2024/03/12 01:13:25;;;;;;;6.82;2.60;;;;;;;6.99;100.00;99585.03;5052018;28;20085;-52
2024/03/12 01:15:53;;;;;;;5.93;3.08;;;;;;;7.03;100.00;99577.66;5051873;28;20052;-54
2024/03/12 01:18:21;;;;;;;5.38;2.20;;;;;;;7.04;100.00;99571.03;5069069;28;20740;-55
2024/03/12 01:20:49;;;;;;;2.70;1.45;;;;;;;7.06;100.00;99560.47;5069345;28;20041;-56
2024/03/12 01:23:16;;;;;;;6.10;1.75;;;;;;;7.08;100.00;99544.41;5050818;28;20082;-54
2024/03/12 01:25:46;;;;;;;4.20;2.38;;;;;;;7.09;100.00;99541.31;5038518;28;20041;-52
2024/03/12 01:28:13;;;;;;;4.95;1.80;;;;;;;7.12;100.00;99531.53;5051974;28;20045;-55
2024/03/12 01:30:41;;;;;;;7.13;1.65;;;;;;;7.15;100.00;99536.31;5049702;28;20287;-53
2024/03/12 01:33:10;;;;;;;4.13;1.70;;;;;;;7.15;100.00;99528.88;5036958;28;20041;-51
2024/03/12 01:35:40;;;;;;;6.10;2.83;;;;;;;7.18;100.00;99525.41;5059072;28;20044;-52
2024/03/12 01:38:08;;;;;;;3.95;2.85;;;;;;;7.21;100.00;99524.72;5051284;28;20053;-54
2024/03/12 01:40:39;;;;;;;7.38;3.08;;;;;;;7.23;100.00;99518.84;5051056;28;20049;-58
2024/03/12 01:43:07;;;;;;;5.82;2.63;;;;;;;7.24;100.00;99506.69;5061933;28;20089;-57
2024/03/12 01:45:35;;;;;;;7.75;2.70;;;;;;;7.26;100.00;99507.94;5052137;28;20055;-52
2024/03/12 01:48:07;;;;;;;10.68;3.10;;;;;;;7.28;100.00;99507.59;5062378;28;20053;-56
2024/03/12 01:50:37;;;;;;;5.15;2.10;;;;;;;7.29;100.00;99489.91;5034974;28;20064;-51
2024/03/12 01:53:05;;;;;;;7.07;2.10;;;;;;;7.32;100.00;99483.72;5041644;28;20048;-55
2024/03/12 01:55:41;;;;;;;5.85;2.50;;;;;;;7.33;100.00;99483.34;5053561;28;20384;-59
2024/03/12 01:58:16;;;;;;;6.88;2.47;;;;;;;7.35;100.00;99477.50;5033330;28;20048;-53
2024/03/12 02:00:45;;;;;;;8.75;3.00;;;;;;;7.39;100.00;99475.63;5034568;28;20071;-54
2024/03/12 02:03:15;;;;;;;6.97;3.42;;;;;;;7.41;100.00;99465.06;5054094;28;20041;-55
2024/03/12 02:05:43;;;;;;;7.13;3.33;;;;;;;7.42;100.00;99461.16;5040451;28;20048;-51
2024/03/12 02:08:11;;;;;;;4.82;2.75;;;;;;;7.44;100.00;99461.59;5048649;28;20053;-55
2024/03/12 02:10:38;;;;;;;11.85;3.30;;;;;;;7.47;100.00;99449.06;5047187;28;20052;-54
2024/03/12 02:13:07;;;;;;;7.57;3.20;;;;;;;7.49;100.00;99452.28;5035165;28;20053;-58
2024/03/12 02:15:34;;;;;;;9.05;4.00;;;;;;;7.52;100.00;99443.31;5061020;28;20406;-55
2024/03/12 02:18:02;;;;;;;14.00;4.15;;;;;;;7.52;100.00;99438.56;5057290;28;20053;-56
2024/03/12 02:20:29;;;;;;;9.73;4.25;;;;;;;7.55;100.00;99448.88;5059880;28;20048;-54
2024/03/12 02:22:56;;;;;;;14.48;3.78;;;;;;;7.57;100.00;99441.06;5050688;28;20079;-56
2024/03/12 02:25:24;;;;;;;10.63;5.10;;;;;;;7.58;100.00;99428.91;5059457;28;20095;-53
2024/03/12 02:27:51;;;;;;;9.88;4.10;;;;;;;7.60;100.00;99429.34;5049218;28;20446;-55
2024/03/12 02:30:20;;;;;;;8.02;3.38;;;;;;;7.63;100.00;99427.81;5066795;28;20057;-56
2024/03/12 02:32:48;;;;;;;13.88;4.25;;;;;;;7.64;100.00;99413.72;5027585;28;20044;-58
2024/03/12 02:35:16;;;;;;;9.27;3.60;;;;;;;7.67;100.00;99415.75;5049416;28;20056;-59
2024/03/12 02:37:44;;;;;;;10.95;4.05;;;;;;;7.68;100.00;99411.00;5059628;28;20503;-54
2024/03/12 02:40:12;;;;;;;17.27;5.15;;;;;;;7.71;100.00;99424.06;5055813;28;20067;-56
2024/03/12 02:42:42;;;;;;;10.93;5.00;;;;;;;7.71;100.00;99408.34;5060630;28;20064;-57
2024/03/12 02:45:20;;;;;;;7.97;4.20;;;;;;;7.72;100.00;99407.22;5050143;28;20041;-53
2024/03/12 02:47:48;;;;;;;13.27;4.75;;;;;;;7.75;100.00;99403.75;5056654;28;20052;-56
2024/03/12 02:50:15;;;;;;;8.75;3.50;;;;;;;7.76;100.00;99399.81;5038614;28;20060;-52
2024/03/12 02:52:44;;;;;;;9.38;3.63;;;;;;;7.78;100.00;99397.47;5046174;28;20056;-53
2024/03/12 02:55:13;;;;;;;13.95;4.22;;;;;;;7.78;100.00;99386.47;5047333;28;20060;-57
2024/03/12 02:57:41;;;;;;;4.60;2.70;;;;;;;7.80;100.00;99384.16;5051708;28;20040;-55
2024/03/12 03:00:13;;;;;;;7.03;3.33;;;;;;;7.83;100.00;99382.66;5061435;28;20102;-52
2024/03/12 03:02:54;;;;;;;8.60;2.97;;;;;;;7.84;100.00;99379.53;4957142;22;3777865;-58
2024/03/12 03:05:22;;;;;;;8.35;2.97;;;;;;;7.85;100.00;99381.13;5058085;28;20033;-60
2024/03/12 03:07:49;;;;;;;10.38;3.97;;;;;;;7.87;100.00;99380.75;5055213;28;20390;-55
2024/03/12 03:10:16;;;;;;;5.82;3.35;;;;;;;7.88;100.00;99374.09;5051986;28;20414;-60
2024/03/12 03:12:44;;;;;;;5.35;2.72;;;;;;;7.89;100.00;99381.19;5053488;28;20415;-57
2024/03/12 03:15:12;;;;;;;10.20;2.17;;;;;;;7.90;100.00;99366.25;5056378;28;20055;-55
2024/03/12 03:17:45;;;;;;;9.65;2.90;;;;;;;7.90;100.00;99367.06;5053583;28;20064;-57
2024/03/12 03:20:16;;;;;;;11.75;3.20;;;;;;;7.92;100.00;99362.00;5041568;28;20052;-54
2024/03/12 03:22:44;;;;;;;8.73;2.72;;;;;;;7.93;100.00;99366.34;5055891;28;20407;-56
2024/03/12 03:25:12;;;;;;;10.98;3.22;;;;;;;7.93;100.00;99362.78;5052856;28;20072;-51
2024/03/12 03:27:40;;;;;;;10.95;2.75;;;;;;;7.95;100.00;99365.97;5043953;28;20045;-58
2024/03/12 03:30:10;;;;;;;11.82;2.88;;;;;;;7.95;100.00;99358.50;5047006;28;20132;-56
2024/03/12 03:32:39;;;;;;;4.80;2.70;;;;;;;7.97;100.00;99356.19;5059164;28;20072;-57
2024/03/12 03:35:07;;;;;;;5.05;2.40;;;;;;;7.98;100.00;99345.97;5047621;28;20052;-60
2024/03/12 03:37:40;;;;;;;4.82;2.38;;;;;;;7.98;100.00;99351.47;5044291;28;20438;-55
2024/03/12 03:40:10;;;;;;;9.32;2.20;;;;;;;7.98;100.00;99345.97;5044367;28;20056;-56
2024/03/12 03:42:41;;;;;;;7.65;1.88;;;;;;;7.98;100.00;99346.78;5031874;28;20069;-59
2024/03/12 03:45:09;;;;;;;14.10;3.65;;;;;;;7.99;100.00;99347.56;5038892;28;20049;-57
2024/03/12 03:47:36;;;;;;;7.25;2.70;;;;;;;7.99;100.00;99342.84;5061630;28;20402;-57
2024/03/12 03:50:07;;;;;;;4.10;2.08;;;;;;;7.99;100.00;99348.34;5051453;28;20059;-57
2024/03/12 03:52:36;;;;;;;2.70;1.83;;;;;;;8.01;100.00;99341.69;5051857;28;20812;-57
2024/03/12 03:55:09;;;;;;;6.60;2.38;;;;;;;8.01;100.00;99339.75;5044074;28;20049;-59
2024/03/12 03:57:36;;;;;;;;;;;;;;;8.02;100.00;99343.28;5058144;28;20498;-56
2024/03/12 04:00:12;;;;;;;5.15;2.65;;;;;;;8.01;100.00;99333.41;5043494;28;19932;-58
2024/03/12 04:02:43;;;;;;;12.00;2.80;;;;;;;8.02;100.00;99340.53;5024393;28;20053;-56
2024/03/12 04:05:12;;;;;;;8.43;2.53;;;;;;;8.04;100.00;99332.69;5001444;28;20232;-55
2024/03/12 04:07:43;;;;;;;5.20;2.78;;;;;;;8.05;100.00;99328.78;5031150;28;20053;-59
2024/03/12 04:10:12;;;;;;;7.57;2.80;;;;;;;8.04;100.00;99336.25;5037321;28;20407;-56
2024/03/12 04:12:46;;;;;;;6.85;2.70;;;;;;;8.06;100.00;99335.88;5024064;28;20052;-52
2024/03/12 04:15:14;;;;;;;7.03;3.08;;;;;;;8.06;100.00;99331.19;5024054;28;20049;-57
2024/03/12 04:17:43;;;;;;;5.57;2.53;;;;;;;8.05;100.00;99342.56;5009429;28;20076;-56
2024/03/12 04:20:12;;;;;;;4.85;2.88;;;;;;;8.01;100.00;99338.94;5026613;28;20045;-54
2024/03/12 04:22:43;;;;;;;11.05;3.65;;;;;;;7.98;100.00;99338.50;5010653;28;20111;-58
2024/03/12 04:25:12;;;;;;;9.73;3.70;;;;;;;7.94;100.00;99345.13;5019134;28;20037;-58
2024/03/12 04:27:40;;;;;;;6.35;3.55;;;;;;;7.89;100.00;99343.41;5020471;28;20046;-59
2024/03/12 04:30:10;;;;;;;11.63;3.83;;;;;;;7.84;100.00;99342.91;5012326;28;20057;-57
2024/03/12 04:32:39;;;;;;;6.90;4.18;;;;;;;7.80;100.00;99342.84;5025471;28;20049;-56
2024/03/12 04:35:12;;;;;;;8.95;4.00;;;;;;;7.76;100.00;99333.69;5021062;28;20407;-58
2024/03/12 04:37:40;;;;;;;7.82;3.08;;;;;;;7.73;100.00;99336.38;5029717;28;20037;-56
2024/03/12 04:40:07;;;;;;;11.30;3.75;;;;;;;7.69;100.00;99336.31;5018321;28;20042;-58
2024/03/12 04:42:37;;;;;;;7.05;3.20;;;;;;;7.64;100.00;99336.59;5017800;28;20058;-60
2024/03/12 04:45:06;;;;;;;9.52;3.38;;;;;;;7.62;100.00;99343.63;5009971;28;20049;-55
2024/03/12 04:47:37;;;;;;;9.93;3.40;;;;;;;7.58;100.00;99343.53;5012109;28;20414;-58
2024/03/12 04:50:07;;;;;;;10.52;4.00;;;;;;;7.55;100.00;99338.72;5019490;28;20053;-55
2024/03/12 04:52:36;;;;;;;8.93;3.13;;;;;;;7.52;100.00;99344.94;5016965;28;20100;-58
2024/03/12 04:55:05;;;;;;;5.63;3.08;;;;;;;7.46;100.00;99340.91;5025011;28;20037;-57
2024/03/12 04:57:35;;;;;;;7.75;3.38;;;;;;;7.43;100.00;99349.88;5026956;28;20072;-58
2024/03/12 05:00:13;;;;;;;5.32;3.33;;;;;;;7.36;100.00;99344.19;5013008;28;20045;-58
2024/03/12 05:02:42;;;;;;;11.00;3.67;;;;;;;7.34;100.00;99354.75;5026624;28;20058;-55
2024/03/12 05:05:11;;;;;;;7.88;2.92;;;;;;;7.31;100.00;99352.72;5030032;28;20041;-55
2024/03/12 05:07:41;;;;;;;8.38;3.63;;;;;;;7.25;100.00;99354.94;5018556;28;20801;-58
2024/03/12 05:10:11;;;;;;;7.53;3.75;;;;;;;7.24;100.00;99350.59;5021138;28;20049;-58
2024/03/12 05:12:39;;;;;;;6.25;3.47;;;;;;;7.22;100.00;99354.88;5006437;28;20053;-59
2024/03/12 05:15:10;;;;;;;8.68;4.30;;;;;;;7.25;100.00;99354.16;5016199;28;20050;-55
2024/03/12 05:17:40;;;;;;;11.05;5.22;;;;;;;7.26;100.00;99344.72;5021009;28;20384;-56
2024/03/12 05:20:14;;;;;;;8.52;4.85;;;;;;;7.24;100.00;99355.31;4993045;28;20431;-61
2024/03/12 05:22:42;;;;;;;12.82;5.70;;;;;;;7.21;100.00;99353.25;5017688;28;20054;-58
2024/03/12 05:25:18;;;;;;;12.57;5.82;;;;;;;7.18;100.00;99352.03;5021685;28;20576;-52
2024/03/12 05:27:47;;;;;;;11.18;5.47;;;;;;;7.19;100.00;99347.31;5013389;28;20045;-57
2024/03/12 05:30:15;;;;;;;8.45;4.60;;;;;;;7.21;100.00;99356.81;5006177;28;20052;-58
2024/03/12 05:32:47;;;;;;;7.40;3.95;;;;;;;7.20;100.00;99359.94;5000426;28;20068;-60
2024/03/12 05:35:21;;;;;;;8.02;3.85;;;;;;;7.23;100.00;99353.69;5016427;28;20050;-58
2024/03/12 05:38:03;;;;;;;9.38;3.50;;;;;;;7.24;100.00;99366.31;5008992;28;20406;-54
2024/03/12 05:40:46;;;;;;;;;;;;;;;7.28;100.00;99367.22;5019325;28;20054;-57
2024/03/12 05:48:49;;;;;;;4.70;2.92;;;;;;;7.51;100.00;99386.63;5017135;28;20045;-57
2024/03/12 05:51:21;;;;;;;4.00;1.77;;;;;;;7.59;100.00;99394.69;5020081;28;20057;-59
2024/03/12 05:53:49;;;;;;;2.42;1.13;;;;;;;7.69;100.00;99398.84;5019189;28;20064;-57
2024/03/12 05:56:17;;;;;;;2.20;1.70;;;;;;;7.78;100.00;99408.50;5009979;28;20801;-56
2024/03/12 05:58:46;;;;;;;5.15;1.45;;;;;;;7.89;100.00;99403.22;4988721;28;20412;-54
2024/03/12 06:01:15;;;;;;;6.20;1.25;;;;;;;7.95;100.00;99408.13;5015494;28;20065;-58
2024/03/12 06:03:43;;;;;;;3.33;1.45;;;;;;;7.98;100.00;99418.44;5010178;28;20262;-52
2024/03/12 06:06:12;;;;;;;10.63;2.08;;;;;;;8.01;100.00;99418.84;5019129;28;20067;-58
2024/03/12 06:08:40;;;;;;;6.32;2.03;;;;;;;8.03;100.00;99414.59;5014089;28;20057;-58
2024/03/12 06:11:07;;;;;;;5.43;1.48;;;;;;;8.03;100.00;99419.28;5012722;28;20056;-57
2024/03/12 06:13:35;;;;;;;8.82;1.50;;;;;;;8.04;100.00;99415.38;4998976;28;20052;-57
2024/03/12 06:16:02;;;;;;;7.00;1.45;;;;;;;8.03;100.00;99416.53;5019445;28;20042;-56
2024/03/12 06:18:29;;;;;;;9.90;1.20;;;;;;;8.02;100.00;99414.97;5009252;28;20046;-57
2024/03/12 06:20:57;;;;;;;6.55;1.58;;;;;;;7.99;100.00;99420.00;5014012;28;20073;-58
2024/03/12 06:23:25;;;;;;;4.70;1.17;;;;;;;7.99;100.00;99417.25;5019958;28;20041;-57
2024/03/12 06:25:53;;;;;;;5.38;1.42;;;;;;;7.99;100.00;99424.75;5014441;28;20045;-56
2024/03/12 06:28:21;;;;;;;16.60;2.15;;;;;;;7.97;100.00;99419.56;5014246;28;20060;-57
2024/03/12 06:30:49;;;;;;;8.13;1.35;;;;;;;7.96;100.00;99426.25;5020491;28;20056;-58
2024/03/12 06:33:21;;;;;;;13.95;1.55;;;;;;;7.95;100.00;99418.34;5023033;28;20558;-56
2024/03/12 06:35:50;;;;;;;7.45;1.33;;;;;;;7.97;100.00;99416.00;5019870;28;20053;-56
2024/03/12 06:38:20;;;;;;;7.72;1.30;;;;;;;7.96;100.00;99426.25;5014076;28;20053;-60
2024/03/12 06:40:51;;;;;;;9.27;2.25;;;;;;;7.96;100.00;99426.25;5027761;28;20507;-58
2024/03/12 06:43:19;;;;;;;7.75;3.58;;;;;;;7.96;100.00;99431.78;5017744;28;20057;-55
2024/03/12 06:45:47;;;;;;;13.70;2.28;;;;;;;7.97;100.00;99432.56;4997837;28;20407;-56
2024/03/12 06:48:17;;;;;;;8.75;1.77;;;;;;;7.99;100.00;99436.53;5013528;28;20061;-57
2024/03/12 06:50:45;;;;;;;4.60;1.38;;;;;;;8.00;100.00;99429.06;5018489;28;20084;-60
2024/03/12 06:53:16;;;;;;;6.47;1.50;;;;;;;7.99;100.00;99436.53;5018116;28;20041;-59
2024/03/12 06:55:45;;;;;;;8.15;1.25;;;;;;;7.97;100.00;99438.88;5026548;28;20048;-56
2024/03/12 06:58:18;;;;;;;4.72;1.30;;;;;;;8.00;100.00;99442.84;5014765;28;20060;-55
2024/03/12 07:00:48;;;;;;;9.75;1.52;;;;;;;8.03;100.00;99447.66;5014964;28;20049;-58
2024/03/12 07:03:21;;;;;;;3.78;1.20;;;;;;;8.07;100.00;99451.31;5001468;28;20503;-58
2024/03/12 07:05:49;;;;;;;9.45;2.83;;;;;;;8.09;100.00;99439.91;5018010;28;20057;-60
2024/03/12 07:08:17;;;;;;;8.38;1.70;;;;;;;8.13;100.00;99446.31;5010487;28;20052;-60
2024/03/12 07:10:45;;;;;;;13.55;1.67;;;;;;;8.14;100.00;99448.69;5025380;28;20064;-58
2024/03/12 07:13:13;;;;;;;5.15;1.80;;;;;;;8.17;100.00;99450.75;5022388;28;20038;-57
2024/03/12 07:15:45;;;;;;;3.55;0.82;;;;;;;8.20;100.00;99449.22;5024911;28;20057;-57
2024/03/12 07:18:14;;;;;;;9.90;1.20;;;;;;;8.22;100.00;99452.41;5017195;28;20057;-58
2024/03/12 07:20:41;;;;;;;9.27;1.13;;;;;;;8.24;100.00;99452.84;5019056;28;20527;-55
2024/03/12 07:23:09;;;;;;;7.63;1.23;;;;;;;8.25;100.00;99451.69;5016243;28;21676;-57
2024/03/12 07:25:36;;;;;;;5.70;2.03;;;;;;;8.27;100.00;99457.66;5018899;28;20045;-59
2024/03/12 07:28:07;;;;;;;7.38;1.70;;;;;;;8.29;100.00;99458.91;5016750;28;20379;-60
2024/03/12 07:30:35;;;;;;;13.27;2.00;;;;;;;8.31;100.00;99464.84;5020405;28;20042;-54
2024/03/12 07:33:03;;;;;;;4.47;1.52;;;;;;;8.32;100.00;99474.72;5008183;28;20512;-53
2024/03/12 07:35:35;;;;;;;7.85;2.00;;;;;;;8.34;100.00;99469.63;5022526;28;20049;-57
2024/03/12 07:38:03;;;;;;;12.07;1.65;;;;;;;8.36;100.00;99477.56;5022003;28;20502;-59
2024/03/12 07:40:34;;;;;;;10.63;2.78;;;;;;;8.37;100.00;99477.19;5008456;28;20058;-58
2024/03/12 07:43:04;;;;;;;9.45;1.42;;;;;;;8.40;100.00;99481.19;4990492;28;20558;-56
2024/03/12 07:45:32;;;;;;;7.82;1.65;;;;;;;8.40;100.00;99493.03;5007596;28;20412;-60
2024/03/12 07:47:59;;;;;;;15.15;1.83;;;;;;;8.43;100.00;99499.78;4979192;28;20042;-59
2024/03/12 07:50:30;;;;;;;9.95;1.25;;;;;;;8.43;100.00;99491.50;5011481;28;20412;-58
2024/03/12 07:52:58;;;;;;;10.27;1.30;;;;;;;8.46;100.00;99493.53;5013639;28;20049;-59
2024/03/12 07:55:28;;;;;;;5.85;1.27;;;;;;;8.47;100.00;99497.91;5002349;28;20061;-58
2024/03/12 07:57:55;;;;;;;7.28;1.30;;;;;;;8.47;100.00;99484.88;5005820;28;20052;-59
2024/03/12 08:00:22;;;;;;;7.47;1.48;;;;;;;8.47;100.00;99495.16;5002747;28;20419;-59
2024/03/12 08:02:50;;;;;;;11.35;2.25;;;;;;;8.47;100.00;99497.91;4998806;28;20057;-57
2024/03/12 08:05:18;;;;;;;2.97;1.00;;;;;;;8.46;100.00;99497.09;5023938;28;20064;-61
2024/03/12 08:07:46;;;;;;;4.75;2.38;;;;;;;8.45;100.00;99492.75;5001267;28;20054;-60
2024/03/12 08:10:13;;;;;;;13.38;1.75;;;;;;;8.46;100.00;99504.56;5017074;28;20061;-57
2024/03/12 08:12:41;;;;;;;4.85;1.27;;;;;;;8.47;100.00;99501.44;5022311;28;20065;-57
2024/03/12 08:15:13;;;;;;;8.45;0.90;;;;;;;8.47;100.00;99501.44;5017495;28;20056;-58
2024/03/12 08:17:40;;;;;;;11.52;1.55;;;;;;;8.48;100.00;99494.78;5016135;28;20056;-58
2024/03/12 08:20:13;;;;;;;9.80;1.42;;;;;;;8.48;100.00;99505.00;5021899;28;20697;-59
2024/03/12 08:22:41;;;;;;;6.82;1.50;;;;;;;8.50;100.00;99502.69;5015867;28;20058;-59
2024/03/12 08:25:11;;;;;;;3.08;1.35;;;;;;;8.52;100.00;99498.41;5013483;28;20495;-59
2024/03/12 08:27:40;;;;;;;4.35;1.27;;;;;;;8.56;100.00;99501.25;4997872;28;20033;-61
2024/03/12 08:30:09;;;;;;;6.97;1.45;;;;;;;8.57;100.00;99505.59;5023609;28;20050;-60
2024/03/12 08:32:36;;;;;;;8.80;2.28;;;;;;;8.59;100.00;99517.06;4996549;28;20417;-60
2024/03/12 08:35:05;;;;;;;9.80;3.13;;;;;;;8.61;100.00;99509.22;5026161;28;20050;-59
2024/03/12 08:37:33;;;;;;;9.60;1.60;;;;;;;8.64;100.00;99503.00;5018505;28;20134;-57
2024/03/12 08:40:08;;;;;;;8.23;1.48;;;;;;;8.68;100.00;99517.66;5018644;28;20080;-58
2024/03/12 08:42:36;;;;;;;9.68;1.27;;;;;;;8.71;100.00;99514.16;5019390;28;20037;-58
2024/03/12 08:45:17;;;;;;;13.18;1.65;;;;;;;8.76;100.00;99497.34;5010533;28;20414;-61
2024/03/12 08:47:50;;;;;;;4.32;1.55;;;;;;;8.80;100.00;99503.72;5009178;28;20042;-57
2024/03/12 08:50:17;;;;;;;5.68;1.13;;;;;;;8.84;100.00;99510.09;5010478;28;20365;-60
2024/03/12 08:52:44;;;;;;;5.63;1.40;;;;;;;8.86;100.00;99510.56;5006398;28;20054;-57
2024/03/12 08:55:12;;;;;;;6.03;1.52;;;;;;;8.89;100.00;99523.63;5010577;28;20475;-59
2024/03/12 08:57:40;;;;;;;5.70;1.00;;;;;;;8.91;100.00;99537.88;4992683;28;20049;-59
2024/03/12 09:00:12;;;;;;;3.20;1.10;;;;;;;8.93;100.00;99530.00;5011248;28;20500;-60
2024/03/12 09:02:39;;;;;;;8.23;1.98;;;;;;;8.99;100.00;99527.75;5010190;28;20050;-58
2024/03/12 09:05:07;;;;;;;6.47;1.25;;;;;;;9.03;100.00;99534.94;5010146;28;20053;-58
2024/03/12 09:07:36;;;;;;;2.15;0.93;;;;;;;9.06;100.00;99534.22;5010233;28;20042;-58
2024/03/12 09:10:12;;;;;;;5.53;1.40;;;;;;;9.12;100.00;99518.16;5010349;28;20080;-57
2024/03/12 09:12:41;;;;;;;6.20;2.13;;;;;;;9.17;100.00;99540.75;4997759;28;20053;-60
2024/03/12 09:15:09;;;;;;;4.45;0.98;;;;;;;9.25;100.00;99536.16;4997549;28;20038;-61
2024/03/12 09:17:39;;;;;;;7.13;1.02;;;;;;;9.31;100.00;99533.91;5010836;28;20052;-58
2024/03/12 09:20:10;;;;;;;5.22;1.15;;;;;;;9.42;100.00;99548.72;5010629;28;20534;-59
2024/03/12 09:22:38;;;;;;;3.38;1.10;;;;;;;9.53;100.00;99538.66;4992745;28;20045;-60
2024/03/12 09:25:08;;;;;;;9.13;2.40;;;;;;;9.61;100.00;99534.88;4992517;28;20558;-60
2024/03/12 09:27:36;;;;;;;5.28;1.08;;;;;;;9.71;100.00;99534.25;5010162;28;20057;-59
2024/03/12 09:30:05;;;;;;;7.40;0.95;;;;;;;9.85;100.00;99536.44;5010170;28;20046;-57
2024/03/12 09:32:34;;;;;;;2.05;0.80;;;;;;;9.97;100.00;99534.28;5009583;28;20050;-61
2024/03/12 09:35:05;;;;;;;3.10;0.70;;;;;;;10.12;100.00;99536.13;4995003;28;20060;-59
2024/03/12 09:37:35;;;;;;;4.90;1.60;;;;;;;10.19;100.00;99536.22;5009599;28;20049;-59
2024/03/12 09:40:06;;;;;;;6.53;1.25;;;;;;;10.20;100.00;99537.84;5009978;28;20038;-58
2024/03/12 09:42:36;;;;;;;4.75;1.08;;;;;;;10.20;100.00;99543.38;5010207;28;20054;-56
2024/03/12 09:45:08;;;;;;;4.75;1.48;;;;;;;10.23;100.00;99534.34;5008713;28;20381;-58
2024/03/12 09:47:36;;;;;;;4.93;1.77;;;;;;;10.31;100.00;99549.88;5009709;28;20038;-58
2024/03/12 09:50:10;;;;;;;3.83;0.88;;;;;;;10.42;100.00;99552.00;5001235;28;20057;-59
2024/03/12 09:52:42;;;;;;;3.47;1.13;;;;;;;10.56;100.00;99549.44;5003916;28;20049;-58
2024/03/12 09:55:13;;;;;;;4.30;1.40;;;;;;;10.68;100.00;99550.00;5016455;28;20049;-57
2024/03/12 09:57:46;;;;;;;5.53;2.88;;;;;;;10.81;100.00;99551.34;4991099;28;20057;-58
2024/03/12 10:00:27;;;;;;;2.80;1.38;;;;;;;10.92;100.00;99551.50;4992256;28;20054;-58
2024/03/12 10:02:55;;;;;;;4.47;1.33;;;;;;;11.00;100.00;99569.81;5018570;28;20053;-58
2024/03/12 10:05:22;;;;;;;2.90;1.08;;;;;;;11.07;100.00;99566.34;5001569;28;20054;-58
2024/03/12 10:08:14;;;;;;;4.25;1.17;;;;;;;11.22;100.00;99565.31;5021799;28;20042;-58
2024/03/12 10:10:54;;;;;;;3.47;1.30;;;;;;;11.28;100.00;99564.59;5006611;28;20057;-58
2024/03/12 10:13:21;;;;;;;3.03;0.80;;;;;;;11.22;100.00;99573.63;5015390;28;20053;-56
2024/03/12 10:15:59;;;;;;;3.42;1.00;;;;;;;11.18;100.00;99587.44;4995241;28;20060;-58
2024/03/12 10:18:30;;;;;;;3.13;0.80;;;;;;;11.28;100.00;99581.22;5019200;28;20037;-55
2024/03/12 10:21:01;;;;;;;4.05;0.95;;;;;;;11.31;100.00;99588.78;5008699;28;20056;-57
2024/03/12 10:23:31;;;;;;;3.90;0.82;;;;;;;11.36;100.00;99582.91;4991244;28;20058;-57
2024/03/12 10:26:12;;;;;;;6.22;0.90;;;;;;;11.55;100.00;99585.50;5015359;28;20325;-57
2024/03/12 10:28:40;;;;;;;3.72;1.27;;;;;;;11.91;100.00;99589.47;5006952;28;20529;-57
2024/03/12 10:31:10;;;;;;;7.95;1.13;;;;;;;12.25;100.00;99589.34;5016986;28;20045;-57
2024/03/12 10:33:42;;;;;;;2.72;0.70;;;;;;;12.38;100.00;99604.50;5009978;28;20037;-58
2024/03/12 10:36:10;;;;;;;5.00;1.10;;;;;;;12.35;100.00;99594.97;5015081;28;20075;-63
2024/03/12 10:38:39;;;;;;;4.18;1.45;;;;;;;12.25;100.00;99589.34;5017089;28;20463;-59
2024/03/12 10:41:18;;;;;;;3.75;1.08;;;;;;;12.32;100.00;99600.50;5015680;28;20041;-57
2024/03/12 10:43:50;;;;;;;4.60;0.70;;;;;;;12.39;100.00;99578.38;4993836;28;20050;-57
2024/03/12 10:46:19;;;;;;;3.95;0.90;;;;;;;12.48;100.00;99587.13;5004441;28;20487;-57
2024/03/12 10:48:48;;;;;;;4.63;1.13;;;;;;;12.35;100.00;99583.06;4990608;28;20419;-58
2024/03/12 10:51:17;;;;;;;2.20;1.13;;;;;;;12.55;100.00;99592.75;5009017;28;20464;-57
2024/03/12 10:53:51;;;;;;;4.00;0.80;;;;;;;12.77;100.00;99588.91;4996369;28;20053;-59
2024/03/12 10:56:19;;;;;;;3.25;1.00;;;;;;;12.83;100.00;99585.41;4996081;28;20060;-59
2024/03/12 10:58:48;;;;;;;2.35;0.93;;;;;;;12.95;100.00;99600.13;5021907;28;20064;-60
2024/03/12 11:01:20;;;;;;;5.40;0.80;;;;;;;12.93;100.00;99597.75;5006831;28;20064;-57
2024/03/12 11:03:50;;;;;;;;;;;;;;;13.04;100.00;99592.25;5046391;28;20045;-55
2024/03/12 11:06:21;;;;;;;2.60;0.50;;;;;;;13.20;100.00;99595.53;5036870;28;19924;-60
2024/03/12 11:08:49;;;;;;;3.45;0.70;;;;;;;13.32;100.00;99593.19;5012821;28;20049;-58
2024/03/12 11:11:19;;;;;;;2.42;1.75;;;;;;;13.50;99.54;99593.28;5019014;28;20049;-59
2024/03/12 11:13:50;;;;;;;6.75;0.77;;;;;;;13.33;99.68;99589.22;5033861;28;20496;-57
2024/03/12 11:16:19;;;;;;;3.30;0.95;;;;;;;13.08;100.00;99599.44;5030385;28;20045;-59
2024/03/12 11:18:49;;;;;;;4.32;0.82;;;;;;;12.88;100.00;99608.41;5028345;28;20052;-59
2024/03/12 11:21:30;;;;;;;2.58;0.75;;;;;;;12.67;100.00;99609.91;5035122;28;20040;-61
2024/03/12 11:23:58;;;;;;;2.20;0.50;;;;;;;12.49;100.00;99620.09;5017693;28;20049;-59
2024/03/12 11:26:29;;;;;;;4.00;0.90;;;;;;;12.32;100.00;99626.28;5011782;28;20052;-59
2024/03/12 11:28:59;;;;;;;2.42;0.70;;;;;;;12.15;100.00;99624.16;5043749;28;20040;-55
2024/03/12 11:31:36;;;;;;;5.88;1.35;;;;;;;12.04;100.00;99626.03;5042377;28;20086;-59
2024/03/12 11:34:04;;;;;;;5.25;1.17;;;;;;;11.96;100.00;99624.38;5031887;28;20053;-57
2024/03/12 11:36:39;;;;;;;5.40;0.80;;;;;;;11.91;100.00;99619.16;5040048;28;20049;-58
2024/03/12 11:39:11;;;;;;;9.23;1.52;;;;;;;11.92;100.00;99631.84;5035454;28;20060;-57
2024/03/12 11:41:59;;;;;;;7.10;1.10;;;;;;;11.95;100.00;99615.25;5025112;28;20045;-58
2024/03/12 11:44:55;;;;;;;3.50;0.90;;;;;;;11.99;100.00;99626.38;5044648;28;20041;-58
2024/03/12 11:47:33;;;;;;;3.85;0.95;;;;;;;12.03;100.00;99630.78;5032908;28;20049;-59
2024/03/12 11:50:02;;;;;;;3.80;0.70;;;;;;;12.04;100.00;99629.63;4993662;28;20061;-57